PWSweather.com
Personal Weather Stations
Station Observations
KIDJEROME
Sse Jerome Butte , Jerome, ID 83338

Sse Jerome Butte Jerome, ID 83338

Lat: 42.6981891, Lon: -114.4041362

Elevation: 3960

Station Type: Davis Vantage Pro 2

Latest ConditionsUpdated 6:30:00 AM MDT Saturday, Jul 20, 2019
Currently Today's Max Today's Min Today's Average
Temperature 53.6°F12.0°C 55.7°F13.2°C 49.4°F9.7°C 52.1°F11.2°C
Dew Point 31.6°F-0.2°C 39.2°F4.0°C 30.6°F-0.8°C 34.6°F1.4°C
Winds 5.0 mph W8.0 kmh W 6.0 mph -9.7 kmh - - 4.1 mph 6.6 kmh
Wind Gusts 7.0 mph11.3 kmh 8.0 mph12.9 kmh - -
Humidity 43% 63% 40% 52%
Pressure 29.80 in1009.1 mb 29.80 in1009.1 mb 29.74 in1007.1 mb -
Hour Temp Dew Point Humidity Winds Wind Gusts Pressure Precip Precip Rate Daily Precip Total
06:30 AM 53.6°F12.0°C 31.6°F-0.2°C 43% 5.0 mph W8.0 kmh W 7.0 mph11.3 kmh 29.80 in1009.1 mb 0.00 in0.0 mm 0.00 in0.0 mm 0.00 in0.0 mm
06:15 AM 53.9°F12.2°C 31.3°F-0.4°C 42% 6.0 mph W9.7 kmh W 7.0 mph11.3 kmh 29.80 in1009.1 mb 0.00 in0.0 mm 0.00 in0.0 mm 0.00 in0.0 mm
06:00 AM 53.8°F12.1°C 30.6°F-0.8°C 41% 5.0 mph W8.0 kmh W 8.0 mph12.9 kmh 29.80 in1009.1 mb 0.00 in0.0 mm 0.00 in0.0 mm 0.00 in0.0 mm
05:45 AM 53.2°F11.8°C 31.3°F-0.4°C 43% 5.0 mph W8.0 kmh W 7.0 mph11.3 kmh 29.79 in1008.8 mb 0.00 in0.0 mm 0.00 in0.0 mm 0.00 in0.0 mm
05:30 AM 52.6°F11.4°C 31.8°F-0.1°C 45% 4.0 mph W6.4 kmh W 7.0 mph11.3 kmh 29.79 in1008.8 mb 0.00 in0.0 mm 0.00 in0.0 mm 0.00 in0.0 mm
05:15 AM 52.0°F11.1°C 32.9°F0.5°C 48% 4.0 mph W6.4 kmh W 6.0 mph9.7 kmh 29.79 in1008.8 mb 0.00 in0.0 mm 0.00 in0.0 mm 0.00 in0.0 mm
05:00 AM 51.4°F10.8°C 33.4°F0.8°C 50% 5.0 mph W8.0 kmh W 6.0 mph9.7 kmh 29.78 in1008.5 mb 0.00 in0.0 mm 0.00 in0.0 mm 0.00 in0.0 mm
04:45 AM 51.1°F10.6°C 33.1°F0.6°C 50% 5.0 mph W8.0 kmh W 7.0 mph11.3 kmh 29.77 in1008.1 mb 0.00 in0.0 mm 0.00 in0.0 mm 0.00 in0.0 mm
04:30 AM 49.6°F9.8°C 34.5°F1.4°C 56% 4.0 mph WNW6.4 kmh WNW 6.0 mph9.7 kmh 29.77 in1008.1 mb 0.00 in0.0 mm 0.00 in0.0 mm 0.00 in0.0 mm
04:15 AM 49.4°F9.7°C 37.3°F2.9°C 63% 3.0 mph WNW4.8 kmh WNW 4.0 mph6.4 kmh 29.77 in1008.1 mb 0.00 in0.0 mm 0.00 in0.0 mm 0.00 in0.0 mm
04:00 AM 50.1°F10.1°C 35.4°F1.9°C 57% 4.0 mph W6.4 kmh W 6.0 mph9.7 kmh 29.77 in1008.1 mb 0.00 in0.0 mm 0.00 in0.0 mm 0.00 in0.0 mm
03:45 AM 50.8°F10.4°C 35.2°F1.8°C 55% 3.0 mph W4.8 kmh W 4.0 mph6.4 kmh 29.77 in1008.1 mb 0.00 in0.0 mm 0.00 in0.0 mm 0.00 in0.0 mm
03:30 AM 51.9°F11.1°C 34.3°F1.3°C 51% 4.0 mph W6.4 kmh W 6.0 mph9.7 kmh 29.77 in1008.1 mb 0.00 in0.0 mm 0.00 in0.0 mm 0.00 in0.0 mm
03:15 AM 51.9°F11.1°C 34.3°F1.3°C 51% 5.0 mph W8.0 kmh W 7.0 mph11.3 kmh 29.77 in1008.1 mb 0.00 in0.0 mm 0.00 in0.0 mm 0.00 in0.0 mm
03:00 AM 52.3°F11.3°C 35.7°F2.1°C 53% 6.0 mph WNW9.7 kmh WNW 8.0 mph12.9 kmh 29.77 in1008.1 mb 0.00 in0.0 mm 0.00 in0.0 mm 0.00 in0.0 mm
02:45 AM 51.4°F10.8°C 36.7°F2.6°C 57% 5.0 mph WNW8.0 kmh WNW 8.0 mph12.9 kmh 29.76 in1007.8 mb 0.00 in0.0 mm 0.00 in0.0 mm 0.00 in0.0 mm
02:30 AM 50.8°F10.4°C 34.7°F1.5°C 54% 4.0 mph WNW6.4 kmh WNW 6.0 mph9.7 kmh 29.77 in1008.1 mb 0.00 in0.0 mm 0.00 in0.0 mm 0.00 in0.0 mm
02:15 AM 51.6°F10.9°C 36.4°F2.4°C 56% 4.0 mph WNW6.4 kmh WNW 6.0 mph9.7 kmh 29.76 in1007.8 mb 0.00 in0.0 mm 0.00 in0.0 mm 0.00 in0.0 mm
02:00 AM 51.7°F10.9°C 35.6°F2.0°C 54% 3.0 mph WNW4.8 kmh WNW 5.0 mph8.0 kmh 29.76 in1007.8 mb 0.00 in0.0 mm 0.00 in0.0 mm 0.00 in0.0 mm
01:45 AM 52.2°F11.2°C 37.9°F3.3°C 58% 4.0 mph WNW6.4 kmh WNW 6.0 mph9.7 kmh 29.76 in1007.8 mb 0.00 in0.0 mm 0.00 in0.0 mm 0.00 in0.0 mm
01:30 AM 55.1°F12.8°C 34.7°F1.5°C 46% 4.0 mph W6.4 kmh W 4.0 mph6.4 kmh 29.76 in1007.8 mb 0.00 in0.0 mm 0.00 in0.0 mm 0.00 in0.0 mm
01:15 AM 55.7°F13.2°C 31.7°F-0.2°C 40% 6.0 mph W9.7 kmh W 8.0 mph12.9 kmh 29.75 in1007.5 mb 0.00 in0.0 mm 0.00 in0.0 mm 0.00 in0.0 mm
01:00 AM 52.9°F11.6°C 34.2°F1.2°C 49% 3.0 mph WNW4.8 kmh WNW 6.0 mph9.7 kmh 29.75 in1007.5 mb 0.00 in0.0 mm 0.00 in0.0 mm 0.00 in0.0 mm
12:45 AM 52.3°F11.3°C 36.1°F2.3°C 54% 3.0 mph WNW4.8 kmh WNW 4.0 mph6.4 kmh 29.75 in1007.5 mb 0.00 in0.0 mm 0.00 in0.0 mm 0.00 in0.0 mm
12:30 AM 51.9°F11.1°C 37.1°F2.8°C 57% 2.0 mph WNW3.2 kmh WNW 4.0 mph6.4 kmh 29.75 in1007.5 mb 0.00 in0.0 mm 0.00 in0.0 mm 0.00 in0.0 mm
12:15 AM 51.4°F10.8°C 39.2°F4.0°C 63% 2.0 mph WNW3.2 kmh WNW 3.0 mph4.8 kmh 29.75 in1007.5 mb 0.00 in0.0 mm 0.00 in0.0 mm 0.00 in0.0 mm
12:00 AM 52.0°F11.1°C 37.2°F2.9°C 57% 2.0 mph WNW3.2 kmh WNW 4.0 mph6.4 kmh 29.74 in1007.1 mb 0.00 in0.0 mm 0.00 in0.0 mm 0.00 in0.0 mm